sensor_id;sensor_type;location;lat;lon;timestamp;temperature;humidity
24772;DHT22;12870;52.274;9.754;2022-10-04T00:00:42;10.60;99.90
24772;DHT22;12870;52.274;9.754;2022-10-04T00:03:08;10.60;99.90
24772;DHT22;12870;52.274;9.754;2022-10-04T00:05:36;10.60;99.90
24772;DHT22;12870;52.274;9.754;2022-10-04T00:11:24;10.60;99.90
24772;DHT22;12870;52.274;9.754;2022-10-04T00:14:01;10.60;99.90
24772;DHT22;12870;52.274;9.754;2022-10-04T00:16:33;10.60;99.90
24772;DHT22;12870;52.274;9.754;2022-10-04T00:24:26;10.70;99.90
24772;DHT22;12870;52.274;9.754;2022-10-04T00:29:38;10.70;99.90
24772;DHT22;12870;52.274;9.754;2022-10-04T00:37:02;10.70;99.90
24772;DHT22;12870;52.274;9.754;2022-10-04T00:39:39;10.70;99.90
24772;DHT22;12870;52.274;9.754;2022-10-04T00:42:23;10.70;99.90
24772;DHT22;12870;52.274;9.754;2022-10-04T00:44:57;10.70;99.90
24772;DHT22;12870;52.274;9.754;2022-10-04T00:50:19;10.70;99.90
24772;DHT22;12870;52.274;9.754;2022-10-04T00:52:55;10.70;99.90
24772;DHT22;12870;52.274;9.754;2022-10-04T00:55:48;10.70;99.90
24772;DHT22;12870;52.274;9.754;2022-10-04T00:58:24;10.70;99.90
24772;DHT22;12870;52.274;9.754;2022-10-04T01:00:53;10.70;99.90
24772;DHT22;12870;52.274;9.754;2022-10-04T01:03:38;10.80;99.90
24772;DHT22;12870;52.274;9.754;2022-10-04T01:06:07;10.80;99.90
24772;DHT22;12870;52.274;9.754;2022-10-04T01:08:47;10.80;99.90
24772;DHT22;12870;52.274;9.754;2022-10-04T01:11:25;10.80;99.90
24772;DHT22;12870;52.274;9.754;2022-10-04T01:13:58;10.80;99.90
24772;DHT22;12870;52.274;9.754;2022-10-04T01:16:29;10.80;99.90
24772;DHT22;12870;52.274;9.754;2022-10-04T01:22:28;10.80;99.90
24772;DHT22;12870;52.274;9.754;2022-10-04T01:24:44;10.80;99.90
24772;DHT22;12870;52.274;9.754;2022-10-04T01:30:04;10.90;99.90
24772;DHT22;12870;52.274;9.754;2022-10-04T01:32:32;10.90;99.90
24772;DHT22;12870;52.274;9.754;2022-10-04T01:34:57;10.90;99.90
24772;DHT22;12870;52.274;9.754;2022-10-04T01:37:25;10.90;99.90
24772;DHT22;12870;52.274;9.754;2022-10-04T01:39:51;10.90;99.90
24772;DHT22;12870;52.274;9.754;2022-10-04T01:42:25;10.90;99.90
24772;DHT22;12870;52.274;9.754;2022-10-04T01:47:45;10.80;99.90
24772;DHT22;12870;52.274;9.754;2022-10-04T01:50:17;10.80;99.90
24772;DHT22;12870;52.274;9.754;2022-10-04T01:52:48;10.70;99.90
24772;DHT22;12870;52.274;9.754;2022-10-04T01:55:38;10.70;99.90
24772;DHT22;12870;52.274;9.754;2022-10-04T01:58:19;10.70;99.90
24772;DHT22;12870;52.274;9.754;2022-10-04T02:01:10;10.70;99.90
24772;DHT22;12870;52.274;9.754;2022-10-04T02:03:41;10.70;99.90
24772;DHT22;12870;52.274;9.754;2022-10-04T02:06:09;10.70;99.90
24772;DHT22;12870;52.274;9.754;2022-10-04T02:08:46;10.70;99.90
24772;DHT22;12870;52.274;9.754;2022-10-04T02:11:16;10.70;99.90
24772;DHT22;12870;52.274;9.754;2022-10-04T02:13:46;10.70;99.90
24772;DHT22;12870;52.274;9.754;2022-10-04T02:16:13;10.80;99.90
24772;DHT22;12870;52.274;9.754;2022-10-04T02:18:41;10.80;99.90
24772;DHT22;12870;52.274;9.754;2022-10-04T02:21:10;10.80;99.90
24772;DHT22;12870;52.274;9.754;2022-10-04T02:23:36;10.80;99.90
24772;DHT22;12870;52.274;9.754;2022-10-04T02:26:10;10.70;99.90
24772;DHT22;12870;52.274;9.754;2022-10-04T02:28:36;10.70;99.90
24772;DHT22;12870;52.274;9.754;2022-10-04T02:31:03;10.80;99.90
24772;DHT22;12870;52.274;9.754;2022-10-04T02:33:50;10.70;99.90
24772;DHT22;12870;52.274;9.754;2022-10-04T02:36:17;10.70;99.90
24772;DHT22;12870;52.274;9.754;2022-10-04T02:43:52;10.80;99.90
24772;DHT22;12870;52.274;9.754;2022-10-04T02:49:15;10.80;99.90
24772;DHT22;12870;52.274;9.754;2022-10-04T02:51:48;10.80;99.90
24772;DHT22;12870;52.274;9.754;2022-10-04T02:57:22;10.80;99.90
24772;DHT22;12870;52.274;9.754;2022-10-04T02:59:48;10.80;99.90
24772;DHT22;12870;52.274;9.754;2022-10-04T03:02:25;10.80;99.90
24772;DHT22;12870;52.274;9.754;2022-10-04T03:04:52;10.80;99.90
24772;DHT22;12870;52.274;9.754;2022-10-04T03:07:19;10.80;99.90
24772;DHT22;12870;52.274;9.754;2022-10-04T03:09:45;10.80;99.90
24772;DHT22;12870;52.274;9.754;2022-10-04T03:12:12;10.90;99.90
24772;DHT22;12870;52.274;9.754;2022-10-04T03:14:38;10.90;99.90
24772;DHT22;12870;52.274;9.754;2022-10-04T03:17:04;10.90;99.90
24772;DHT22;12870;52.274;9.754;2022-10-04T03:19:32;10.90;99.90
24772;DHT22;12870;52.274;9.754;2022-10-04T03:22:06;10.90;99.90
24772;DHT22;12870;52.274;9.754;2022-10-04T03:24:49;10.80;99.90
24772;DHT22;12870;52.274;9.754;2022-10-04T03:27:20;10.90;99.90
24772;DHT22;12870;52.274;9.754;2022-10-04T03:29:47;10.80;99.90
24772;DHT22;12870;52.274;9.754;2022-10-04T03:32:16;10.80;99.90
24772;DHT22;12870;52.274;9.754;2022-10-04T03:34:59;10.80;99.90
24772;DHT22;12870;52.274;9.754;2022-10-04T03:37:28;10.80;99.90
24772;DHT22;12870;52.274;9.754;2022-10-04T03:39:55;10.80;99.90
24772;DHT22;12870;52.274;9.754;2022-10-04T03:42:25;10.80;99.90
24772;DHT22;12870;52.274;9.754;2022-10-04T03:44:59;10.80;99.90
24772;DHT22;12870;52.274;9.754;2022-10-04T03:47:37;10.80;99.90
24772;DHT22;12870;52.274;9.754;2022-10-04T03:52:45;10.90;99.90
24772;DHT22;12870;52.274;9.754;2022-10-04T03:55:14;10.90;99.90
24772;DHT22;12870;52.274;9.754;2022-10-04T03:57:40;10.90;99.90
24772;DHT22;12870;52.274;9.754;2022-10-04T04:00:07;11.00;99.90
24772;DHT22;12870;52.274;9.754;2022-10-04T04:02:47;11.00;99.90
24772;DHT22;12870;52.274;9.754;2022-10-04T04:10:51;10.90;99.90
24772;DHT22;12870;52.274;9.754;2022-10-04T04:14:10;10.90;99.90
24772;DHT22;12870;52.274;9.754;2022-10-04T04:16:37;10.90;99.90
24772;DHT22;12870;52.274;9.754;2022-10-04T04:19:08;10.90;99.90
24772;DHT22;12870;52.274;9.754;2022-10-04T04:21:36;10.90;99.90
24772;DHT22;12870;52.274;9.754;2022-10-04T04:24:12;10.90;99.90
24772;DHT22;12870;52.274;9.754;2022-10-04T04:26:45;10.90;99.90
24772;DHT22;12870;52.274;9.754;2022-10-04T04:35:01;10.80;99.90
24772;DHT22;12870;52.274;9.754;2022-10-04T04:37:37;10.70;99.90
24772;DHT22;12870;52.274;9.754;2022-10-04T04:40:23;10.70;99.90
24772;DHT22;12870;52.274;9.754;2022-10-04T04:42:50;10.70;99.90
24772;DHT22;12870;52.274;9.754;2022-10-04T04:45:22;10.70;99.90
24772;DHT22;12870;52.274;9.754;2022-10-04T04:47:54;10.70;99.90
24772;DHT22;12870;52.274;9.754;2022-10-04T04:50:23;10.60;99.90
24772;DHT22;12870;52.274;9.754;2022-10-04T04:53:13;10.60;99.90
24772;DHT22;12870;52.274;9.754;2022-10-04T04:55:46;10.60;99.90
24772;DHT22;12870;52.274;9.754;2022-10-04T04:58:22;10.50;99.90
24772;DHT22;12870;52.274;9.754;2022-10-04T05:01:27;10.50;99.90
24772;DHT22;12870;52.274;9.754;2022-10-04T05:04:02;10.50;99.90
24772;DHT22;12870;52.274;9.754;2022-10-04T05:06:29;10.50;99.90
24772;DHT22;12870;52.274;9.754;2022-10-04T05:08:55;10.40;99.90
24772;DHT22;12870;52.274;9.754;2022-10-04T05:11:28;10.40;99.90
24772;DHT22;12870;52.274;9.754;2022-10-04T05:13:59;10.40;99.90
24772;DHT22;12870;52.274;9.754;2022-10-04T05:16:28;10.40;99.90
24772;DHT22;12870;52.274;9.754;2022-10-04T05:18:59;10.40;99.90
24772;DHT22;12870;52.274;9.754;2022-10-04T05:21:27;10.40;99.90
24772;DHT22;12870;52.274;9.754;2022-10-04T05:23:55;10.50;99.90
24772;DHT22;12870;52.274;9.754;2022-10-04T05:26:29;10.50;99.90
24772;DHT22;12870;52.274;9.754;2022-10-04T05:28:58;10.50;99.90
24772;DHT22;12870;52.274;9.754;2022-10-04T05:34:23;10.50;99.90
24772;DHT22;12870;52.274;9.754;2022-10-04T05:37:05;10.60;99.90
24772;DHT22;12870;52.274;9.754;2022-10-04T05:42:45;10.60;99.90
24772;DHT22;12870;52.274;9.754;2022-10-04T05:45:20;10.60;99.90
24772;DHT22;12870;52.274;9.754;2022-10-04T05:47:53;10.60;99.90
24772;DHT22;12870;52.274;9.754;2022-10-04T05:53:19;10.60;99.90
24772;DHT22;12870;52.274;9.754;2022-10-04T06:07:10;10.70;99.90
24772;DHT22;12870;52.274;9.754;2022-10-04T06:09:47;10.70;99.90
24772;DHT22;12870;52.274;9.754;2022-10-04T06:15:09;10.70;99.90
24772;DHT22;12870;52.274;9.754;2022-10-04T06:23:00;10.80;99.90
24772;DHT22;12870;52.274;9.754;2022-10-04T06:25:35;10.80;99.90
24772;DHT22;12870;52.274;9.754;2022-10-04T06:39:11;11.00;99.90
24772;DHT22;12870;52.274;9.754;2022-10-04T06:45:05;11.00;99.90
24772;DHT22;12870;52.274;9.754;2022-10-04T06:50:22;11.10;99.90
24772;DHT22;12870;52.274;9.754;2022-10-04T06:53:25;11.10;99.90
24772;DHT22;12870;52.274;9.754;2022-10-04T07:01:29;11.30;99.90
24772;DHT22;12870;52.274;9.754;2022-10-04T07:04:03;11.30;99.90
24772;DHT22;12870;52.274;9.754;2022-10-04T07:06:45;11.40;99.90
24772;DHT22;12870;52.274;9.754;2022-10-04T07:09:25;11.40;99.90
24772;DHT22;12870;52.274;9.754;2022-10-04T07:11:57;11.40;99.90
24772;DHT22;12870;52.274;9.754;2022-10-04T07:14:31;11.50;99.90
24772;DHT22;12870;52.274;9.754;2022-10-04T07:17:08;11.60;99.90
24772;DHT22;12870;52.274;9.754;2022-10-04T07:19:45;11.60;99.90
24772;DHT22;12870;52.274;9.754;2022-10-04T07:22:44;11.60;99.90
24772;DHT22;12870;52.274;9.754;2022-10-04T07:28:22;11.80;99.90
24772;DHT22;12870;52.274;9.754;2022-10-04T07:31:13;12.00;99.90
24772;DHT22;12870;52.274;9.754;2022-10-04T07:33:49;12.10;99.90
24772;DHT22;12870;52.274;9.754;2022-10-04T07:36:50;12.20;99.90
24772;DHT22;12870;52.274;9.754;2022-10-04T07:39:16;12.30;99.90
24772;DHT22;12870;52.274;9.754;2022-10-04T07:41:55;12.30;99.90
24772;DHT22;12870;52.274;9.754;2022-10-04T07:44:36;12.50;99.90
24772;DHT22;12870;52.274;9.754;2022-10-04T07:47:23;12.60;99.90
24772;DHT22;12870;52.274;9.754;2022-10-04T07:49:53;12.60;99.90
24772;DHT22;12870;52.274;9.754;2022-10-04T07:55:22;12.80;99.90
24772;DHT22;12870;52.274;9.754;2022-10-04T08:03:53;12.90;99.90
24772;DHT22;12870;52.274;9.754;2022-10-04T08:06:36;13.00;99.90
24772;DHT22;12870;52.274;9.754;2022-10-04T08:29:33;13.30;99.90
24772;DHT22;12870;52.274;9.754;2022-10-04T08:32:04;13.40;99.90
24772;DHT22;12870;52.274;9.754;2022-10-04T08:52:16;14.50;99.90
24772;DHT22;12870;52.274;9.754;2022-10-04T09:05:59;14.90;99.90
24772;DHT22;12870;52.274;9.754;2022-10-04T09:14:37;15.00;99.90
24772;DHT22;12870;52.274;9.754;2022-10-04T09:17:20;14.90;99.90
24772;DHT22;12870;52.274;9.754;2022-10-04T09:36:54;15.40;99.90
24772;DHT22;12870;52.274;9.754;2022-10-04T09:39:49;15.50;99.90
24772;DHT22;12870;52.274;9.754;2022-10-04T09:42:35;15.40;99.90
24772;DHT22;12870;52.274;9.754;2022-10-04T09:53:53;15.80;99.90
24772;DHT22;12870;52.274;9.754;2022-10-04T09:56:30;15.80;99.90
24772;DHT22;12870;52.274;9.754;2022-10-04T10:54:27;21.20;99.90
24772;DHT22;12870;52.274;9.754;2022-10-04T11:02:38;22.00;99.90
24772;DHT22;12870;52.274;9.754;2022-10-04T11:14:17;23.30;99.90
24772;DHT22;12870;52.274;9.754;2022-10-04T11:28:43;24.10;99.90
24772;DHT22;12870;52.274;9.754;2022-10-04T11:31:37;23.90;99.90
24772;DHT22;12870;52.274;9.754;2022-10-04T11:42:51;24.90;97.20
24772;DHT22;12870;52.274;9.754;2022-10-04T12:04:29;24.80;94.20
24772;DHT22;12870;52.274;9.754;2022-10-04T12:07:10;25.30;92.90
24772;DHT22;12870;52.274;9.754;2022-10-04T12:13:00;26.00;93.60
24772;DHT22;12870;52.274;9.754;2022-10-04T12:15:42;26.20;91.10
24772;DHT22;12870;52.274;9.754;2022-10-04T12:21:10;26.20;90.90
24772;DHT22;12870;52.274;9.754;2022-10-04T12:32:43;25.60;91.50
24772;DHT22;12870;52.274;9.754;2022-10-04T12:38:14;26.90;91.20
24772;DHT22;12870;52.274;9.754;2022-10-04T12:41:03;28.10;91.00
24772;DHT22;12870;52.274;9.754;2022-10-04T12:52:07;27.70;83.10
24772;DHT22;12870;52.274;9.754;2022-10-04T12:54:55;27.60;81.90
24772;DHT22;12870;52.274;9.754;2022-10-04T13:00:18;28.30;82.00
24772;DHT22;12870;52.274;9.754;2022-10-04T13:08:23;28.80;77.50
24772;DHT22;12870;52.274;9.754;2022-10-04T13:14:39;27.50;77.30
24772;DHT22;12870;52.274;9.754;2022-10-04T13:30:50;27.90;76.50
24772;DHT22;12870;52.274;9.754;2022-10-04T13:36:26;27.90;74.90
24772;DHT22;12870;52.274;9.754;2022-10-04T13:52:54;27.60;77.80
24772;DHT22;12870;52.274;9.754;2022-10-04T13:56:05;27.40;74.50
24772;DHT22;12870;52.274;9.754;2022-10-04T14:05:11;26.00;75.60
24772;DHT22;12870;52.274;9.754;2022-10-04T14:36:15;28.40;72.70
24772;DHT22;12870;52.274;9.754;2022-10-04T14:39:11;28.20;73.40
24772;DHT22;12870;52.274;9.754;2022-10-04T14:42:03;28.80;72.40
24772;DHT22;12870;52.274;9.754;2022-10-04T15:11:48;27.00;72.60
24772;DHT22;12870;52.274;9.754;2022-10-04T15:14:35;26.70;71.20
24772;DHT22;12870;52.274;9.754;2022-10-04T15:17:25;26.90;72.70
24772;DHT22;12870;52.274;9.754;2022-10-04T15:22:29;27.50;71.90
24772;DHT22;12870;52.274;9.754;2022-10-04T15:24:58;27.30;70.70
24772;DHT22;12870;52.274;9.754;2022-10-04T15:36:02;24.20;78.10
24772;DHT22;12870;52.274;9.754;2022-10-04T15:41:04;23.40;82.60
24772;DHT22;12870;52.274;9.754;2022-10-04T15:46:49;23.70;82.50
24772;DHT22;12870;52.274;9.754;2022-10-04T15:52:43;24.60;82.20
24772;DHT22;12870;52.274;9.754;2022-10-04T15:56:00;24.80;81.50
24772;DHT22;12870;52.274;9.754;2022-10-04T16:01:18;24.30;82.70
24772;DHT22;12870;52.274;9.754;2022-10-04T16:04:15;23.90;84.30
24772;DHT22;12870;52.274;9.754;2022-10-04T16:06:48;23.60;85.60
24772;DHT22;12870;52.274;9.754;2022-10-04T16:09:45;23.30;86.60
24772;DHT22;12870;52.274;9.754;2022-10-04T16:15:17;21.80;91.10
24772;DHT22;12870;52.274;9.754;2022-10-04T16:23:33;20.00;99.90
24772;DHT22;12870;52.274;9.754;2022-10-04T16:29:08;19.10;99.90
24772;DHT22;12870;52.274;9.754;2022-10-04T16:34:25;18.50;99.90
24772;DHT22;12870;52.274;9.754;2022-10-04T16:47:37;18.10;99.90
24772;DHT22;12870;52.274;9.754;2022-10-04T16:50:09;18.00;99.90
24772;DHT22;12870;52.274;9.754;2022-10-04T16:52:45;17.90;99.90
24772;DHT22;12870;52.274;9.754;2022-10-04T17:01:25;17.50;99.90
24772;DHT22;12870;52.274;9.754;2022-10-04T17:09:57;17.00;99.90
24772;DHT22;12870;52.274;9.754;2022-10-04T17:17:59;16.60;99.90
24772;DHT22;12870;52.274;9.754;2022-10-04T17:20:53;16.50;99.90
24772;DHT22;12870;52.274;9.754;2022-10-04T17:34:34;16.00;99.90
24772;DHT22;12870;52.274;9.754;2022-10-04T17:54:00;15.50;99.90
24772;DHT22;12870;52.274;9.754;2022-10-04T17:57:11;15.40;99.90
24772;DHT22;12870;52.274;9.754;2022-10-04T17:59:45;15.40;99.90
24772;DHT22;12870;52.274;9.754;2022-10-04T18:02:26;15.30;99.90
24772;DHT22;12870;52.274;9.754;2022-10-04T18:04:57;15.30;99.90
24772;DHT22;12870;52.274;9.754;2022-10-04T18:07:31;15.20;99.90
24772;DHT22;12870;52.274;9.754;2022-10-04T18:10:02;15.10;99.90
24772;DHT22;12870;52.274;9.754;2022-10-04T18:12:39;15.10;99.90
24772;DHT22;12870;52.274;9.754;2022-10-04T18:15:23;15.00;99.90
24772;DHT22;12870;52.274;9.754;2022-10-04T18:18:38;15.00;99.90
24772;DHT22;12870;52.274;9.754;2022-10-04T18:23:27;14.90;99.90
24772;DHT22;12870;52.274;9.754;2022-10-04T18:25:56;14.80;99.90
24772;DHT22;12870;52.274;9.754;2022-10-04T18:28:24;14.80;99.90
24772;DHT22;12870;52.274;9.754;2022-10-04T18:31:00;14.80;99.90
24772;DHT22;12870;52.274;9.754;2022-10-04T18:36:23;14.70;99.90
24772;DHT22;12870;52.274;9.754;2022-10-04T18:39:02;14.60;99.90
24772;DHT22;12870;52.274;9.754;2022-10-04T18:41:28;14.60;99.90
24772;DHT22;12870;52.274;9.754;2022-10-04T18:44:15;14.50;99.90
24772;DHT22;12870;52.274;9.754;2022-10-04T18:46:45;14.50;99.90
24772;DHT22;12870;52.274;9.754;2022-10-04T18:52:02;14.40;99.90
24772;DHT22;12870;52.274;9.754;2022-10-04T18:57:43;14.50;99.90
24772;DHT22;12870;52.274;9.754;2022-10-04T19:00:37;14.50;99.90
24772;DHT22;12870;52.274;9.754;2022-10-04T19:06:27;14.40;99.90
24772;DHT22;12870;52.274;9.754;2022-10-04T19:28:19;14.30;99.90
24772;DHT22;12870;52.274;9.754;2022-10-04T19:33:42;14.30;99.90
24772;DHT22;12870;52.274;9.754;2022-10-04T19:39:20;14.30;99.90
24772;DHT22;12870;52.274;9.754;2022-10-04T19:42:04;14.40;99.90
24772;DHT22;12870;52.274;9.754;2022-10-04T19:47:28;14.50;99.90
24772;DHT22;12870;52.274;9.754;2022-10-04T19:52:38;14.50;99.90
24772;DHT22;12870;52.274;9.754;2022-10-04T19:55:19;14.50;99.90
24772;DHT22;12870;52.274;9.754;2022-10-04T20:00:43;14.50;99.90
24772;DHT22;12870;52.274;9.754;2022-10-04T20:03:10;14.50;99.90
24772;DHT22;12870;52.274;9.754;2022-10-04T20:05:42;14.40;99.90
24772;DHT22;12870;52.274;9.754;2022-10-04T20:08:11;14.40;99.90
24772;DHT22;12870;52.274;9.754;2022-10-04T20:10:37;14.30;99.90
24772;DHT22;12870;52.274;9.754;2022-10-04T20:18:49;14.20;99.90
24772;DHT22;12870;52.274;9.754;2022-10-04T20:21:14;14.10;99.90
24772;DHT22;12870;52.274;9.754;2022-10-04T20:23:49;14.00;99.90
24772;DHT22;12870;52.274;9.754;2022-10-04T20:26:39;14.00;99.90
24772;DHT22;12870;52.274;9.754;2022-10-04T20:32:02;13.90;99.90
24772;DHT22;12870;52.274;9.754;2022-10-04T20:34:48;13.90;99.90
24772;DHT22;12870;52.274;9.754;2022-10-04T20:37:14;13.90;99.90
24772;DHT22;12870;52.274;9.754;2022-10-04T20:45:18;13.80;99.90
24772;DHT22;12870;52.274;9.754;2022-10-04T20:47:47;13.80;99.90
24772;DHT22;12870;52.274;9.754;2022-10-04T20:50:33;13.80;99.90
24772;DHT22;12870;52.274;9.754;2022-10-04T20:53:06;13.70;99.90
24772;DHT22;12870;52.274;9.754;2022-10-04T20:55:37;13.80;99.90
24772;DHT22;12870;52.274;9.754;2022-10-04T20:58:23;13.80;99.90
24772;DHT22;12870;52.274;9.754;2022-10-04T21:00:57;13.80;99.90
24772;DHT22;12870;52.274;9.754;2022-10-04T21:03:24;13.80;99.90
24772;DHT22;12870;52.274;9.754;2022-10-04T21:06:05;13.90;99.90
24772;DHT22;12870;52.274;9.754;2022-10-04T21:08:33;13.90;99.90
24772;DHT22;12870;52.274;9.754;2022-10-04T21:16:46;13.80;99.90
24772;DHT22;12870;52.274;9.754;2022-10-04T21:22:01;13.90;99.90
24772;DHT22;12870;52.274;9.754;2022-10-04T21:24:36;13.90;99.90
24772;DHT22;12870;52.274;9.754;2022-10-04T21:27:04;13.90;99.90
24772;DHT22;12870;52.274;9.754;2022-10-04T21:29:30;13.80;99.90
24772;DHT22;12870;52.274;9.754;2022-10-04T21:31:57;13.80;99.90
24772;DHT22;12870;52.274;9.754;2022-10-04T21:34:22;13.80;99.90
24772;DHT22;12870;52.274;9.754;2022-10-04T21:36:48;13.80;99.90
24772;DHT22;12870;52.274;9.754;2022-10-04T21:39:14;13.80;99.90
24772;DHT22;12870;52.274;9.754;2022-10-04T21:41:40;13.80;99.90
24772;DHT22;12870;52.274;9.754;2022-10-04T21:44:06;13.80;99.90
24772;DHT22;12870;52.274;9.754;2022-10-04T21:46:32;13.90;99.90
24772;DHT22;12870;52.274;9.754;2022-10-04T21:48:58;13.90;99.90
24772;DHT22;12870;52.274;9.754;2022-10-04T21:51:23;13.90;99.90
24772;DHT22;12870;52.274;9.754;2022-10-04T21:53:49;13.90;99.90
24772;DHT22;12870;52.274;9.754;2022-10-04T21:56:15;13.80;99.90
24772;DHT22;12870;52.274;9.754;2022-10-04T21:58:40;13.80;99.90
24772;DHT22;12870;52.274;9.754;2022-10-04T22:01:06;13.80;99.90
24772;DHT22;12870;52.274;9.754;2022-10-04T22:03:32;13.80;99.90
24772;DHT22;12870;52.274;9.754;2022-10-04T22:05:58;13.80;99.90
24772;DHT22;12870;52.274;9.754;2022-10-04T22:08:23;13.90;99.90
24772;DHT22;12870;52.274;9.754;2022-10-04T22:10:49;13.90;99.90
24772;DHT22;12870;52.274;9.754;2022-10-04T22:13:15;13.90;99.90
24772;DHT22;12870;52.274;9.754;2022-10-04T22:15:41;13.80;99.90
24772;DHT22;12870;52.274;9.754;2022-10-04T22:18:06;13.90;99.90
24772;DHT22;12870;52.274;9.754;2022-10-04T22:20:32;13.90;99.90
24772;DHT22;12870;52.274;9.754;2022-10-04T22:22:58;13.90;99.90
24772;DHT22;12870;52.274;9.754;2022-10-04T22:25:26;13.90;99.90
24772;DHT22;12870;52.274;9.754;2022-10-04T22:27:55;13.90;99.90
24772;DHT22;12870;52.274;9.754;2022-10-04T22:30:28;13.90;99.90
24772;DHT22;12870;52.274;9.754;2022-10-04T22:32:57;13.90;99.90
24772;DHT22;12870;52.274;9.754;2022-10-04T22:35:23;13.90;99.90
24772;DHT22;12870;52.274;9.754;2022-10-04T22:37:49;13.90;99.90
24772;DHT22;12870;52.274;9.754;2022-10-04T22:40:23;13.80;99.90
24772;DHT22;12870;52.274;9.754;2022-10-04T22:42:54;13.90;99.90
24772;DHT22;12870;52.274;9.754;2022-10-04T22:45:25;13.80;99.90
24772;DHT22;12870;52.274;9.754;2022-10-04T22:47:53;13.90;99.90
24772;DHT22;12870;52.274;9.754;2022-10-04T22:50:31;13.90;99.90
24772;DHT22;12870;52.274;9.754;2022-10-04T22:53:18;13.90;99.90
24772;DHT22;12870;52.274;9.754;2022-10-04T22:55:46;13.90;99.90
24772;DHT22;12870;52.274;9.754;2022-10-04T22:58:13;13.80;99.90
24772;DHT22;12870;52.274;9.754;2022-10-04T23:00:40;13.80;99.90
24772;DHT22;12870;52.274;9.754;2022-10-04T23:03:31;13.70;99.90
24772;DHT22;12870;52.274;9.754;2022-10-04T23:06:01;13.60;99.90
24772;DHT22;12870;52.274;9.754;2022-10-04T23:08:28;13.60;99.90
24772;DHT22;12870;52.274;9.754;2022-10-04T23:10:56;13.50;99.90
24772;DHT22;12870;52.274;9.754;2022-10-04T23:13:23;13.50;99.90
24772;DHT22;12870;52.274;9.754;2022-10-04T23:15:50;13.40;99.90
24772;DHT22;12870;52.274;9.754;2022-10-04T23:18:16;13.30;99.90
24772;DHT22;12870;52.274;9.754;2022-10-04T23:20:43;13.20;99.90
24772;DHT22;12870;52.274;9.754;2022-10-04T23:23:13;13.10;99.90
24772;DHT22;12870;52.274;9.754;2022-10-04T23:25:46;13.10;99.90
24772;DHT22;12870;52.274;9.754;2022-10-04T23:28:16;13.10;99.90
24772;DHT22;12870;52.274;9.754;2022-10-04T23:30:44;13.00;99.90
24772;DHT22;12870;52.274;9.754;2022-10-04T23:33:22;13.00;99.90
24772;DHT22;12870;52.274;9.754;2022-10-04T23:35:48;13.00;99.90
24772;DHT22;12870;52.274;9.754;2022-10-04T23:38:17;12.90;99.90
24772;DHT22;12870;52.274;9.754;2022-10-04T23:40:47;12.80;99.90
24772;DHT22;12870;52.274;9.754;2022-10-04T23:43:21;12.80;99.90
24772;DHT22;12870;52.274;9.754;2022-10-04T23:45:54;12.70;99.90
24772;DHT22;12870;52.274;9.754;2022-10-04T23:48:23;12.60;99.90
24772;DHT22;12870;52.274;9.754;2022-10-04T23:50:49;12.60;99.90
24772;DHT22;12870;52.274;9.754;2022-10-04T23:53:29;12.50;99.90
24772;DHT22;12870;52.274;9.754;2022-10-04T23:55:57;12.50;99.90
24772;DHT22;12870;52.274;9.754;2022-10-04T23:58:31;12.50;99.90
